Providenciales, Turks Islands

11:47 PM EDT on July 31, 2014 (GMT -0400)
Providenciales International (MBPV) Elev 16 ft | 21.77 °N, 72.27 °W | Change Station

Current weather conditions updated 4 hours ago

Scattered Clouds
Scattered Clouds
84 °F
Feels Like 91 °F
N
10
Wind Variable Wind from NE

Tomorrow is forecast to be Much Cooler than today. Morning thunderstorms.

Today
High -- | Low -- °F
--% Chance of Precip.
Yesterday
High -- | Low -- °F
Precip. -- in
6:21 AM 7:29 PM
Waxing Crescent, 23% visible
Pressure 29.95 in
Visibility 6.2 miles
Clouds Scattered Clouds 1500 ft
Heat Index 91 °F
Dew Point 73 °F
Humidity 70%
Rainfall 0.00 in
Snow Depth Not available.
UV 0 out of 12
Pollen Not available.
Air Quality Not available.
Flu Activity Not available.
METAR MBPV 312300Z 04009KT 9999 SCT015 29/23 Q1014

More Conditions Fewer Conditions

Pressure 29.95 in
Visibility 6.2 miles
Clouds Scattered Clouds 1500 ft
Heat Index 91 °F
Dew Point 73 °F
Humidity 70%
Rainfall 0.00 in
Snow Depth Not available.
UV 0 out of 12
Pollen Not available.
Air Quality Not available.
Flu Activity Not available.
METAR MBPV 312300Z 04009KT 9999 SCT015 29/23 Q1014

More Conditions Fewer Conditions

10-Day Weather Forecast

Almanac

Astronomy

Jul. 31, 2014 Rise Set
Actual Time 6:21 AM EDT 7:29 PM EDT
Civil Twilight 5:57 AM EDT 7:53 PM EDT
Nautical Twilight 5:29 AM EDT 8:21 PM EDT
Astronomical Twilight 5:00 AM EDT 8:50 PM EDT
Moon 10:08 AM EDT (7/31) 10:21 PM EDT (7/31)
Length of Visible Light 13h 55m
Length of Day
13h 07m
Tomorrow will be 0m 55s shorter.
Waxing Crescent, 23% of the Moon is Illuminated
Today
Waxing Crescent
Aug 3
First Quarter
Aug 10
Full
Aug 17
Last Quarter
Aug 25
New

Today's Extremes

Country Highs Country Lows

Community

WunderPhotos

Upload Photos

1,739,504 photos uploaded!

Nearby

Snow Depth

Not available.

Earthquake Activity

City Distance Mag. Time & Date
No recent earthquake activity has been reported nearby.
Minimum magnitude displayed is 2.5.

Coastal Water Temperatures

Place Temperature
No Stations Reporting

Nearby Weather Stations

Station Location Temp. Heat Index Dew Point Humidity Wind Precip. Elev Updated Type
south shore on turtle tail, Providenciales 81.8 °F 89 °F 77 °F 84% ENE  at  3.0 mph 0.00 in / hr 60 ft 11:29 PM EDT Normal
The Regent Grand, Grace Bay 80.0 °F 78 °F - - ENE  at  9.0 mph 0.00 in / hr 0 ft 11:43 PM EDT Normal
Provo Golf Club, Caicos Islands 78.3 °F 81 °F 77 °F 97% East  at  6.0 mph 0.00 in / hr 23 ft 11:46 PM EDT Rapid Fire
Pine Cay Weather, GeekHo 81.0 °F 86 °F 74 °F 80% ESE  at  13.0 mph - / hr 40 ft 11:46 PM EDT Normal

Show More Stations Show Fewer Stations